createdAt,value
2022-09-18T00:01:24.923Z,1.70
2022-09-18T00:03:57.206Z,1.50
2022-09-18T00:06:27.026Z,1.60
2022-09-18T00:08:55.475Z,1.70
2022-09-18T00:11:25.378Z,1.67
2022-09-18T00:13:52.541Z,2.20
2022-09-18T00:16:22.441Z,2.47
2022-09-18T00:18:49.707Z,1.70
2022-09-18T00:21:28.212Z,1.53
2022-09-18T00:23:56.776Z,1.50
2022-09-18T00:26:25.747Z,1.70
2022-09-18T00:28:54.520Z,1.60
2022-09-18T00:31:29.720Z,1.60
2022-09-18T00:34:02.584Z,1.47
2022-09-18T00:36:30.125Z,1.50
2022-09-18T00:38:59.342Z,1.47
2022-09-18T00:41:45.890Z,1.60
2022-09-18T00:44:35.673Z,1.67
2022-09-18T00:47:11.194Z,1.37
2022-09-18T00:50:05.293Z,1.70
2022-09-18T00:52:45.696Z,1.80
2022-09-18T00:55:13.805Z,1.60
2022-09-18T00:57:46.348Z,1.53
2022-09-18T01:00:14.577Z,1.60
2022-09-18T01:02:43.700Z,1.73
2022-09-18T01:05:12.735Z,1.70
2022-09-18T01:07:51.822Z,1.50
2022-09-18T01:10:37.387Z,1.53
2022-09-18T01:13:22.631Z,1.67
2022-09-18T01:16:02.047Z,1.63
2022-09-18T01:18:51.489Z,1.53
2022-09-18T01:21:29.099Z,1.80
2022-09-18T01:24:08.798Z,1.70
2022-09-18T01:26:54.523Z,1.60
2022-09-18T01:29:45.471Z,1.67
2022-09-18T01:32:24.257Z,1.40
2022-09-18T01:35:09.556Z,1.40
2022-09-18T01:37:54.334Z,1.80
2022-09-18T01:40:37.849Z,1.83
2022-09-18T01:43:09.014Z,1.70
2022-09-18T01:45:41.235Z,1.73
2022-09-18T01:48:10.844Z,1.20
2022-09-18T01:50:48.356Z,1.57
2022-09-18T01:53:37.004Z,1.40
2022-09-18T01:56:11.587Z,1.53
2022-09-18T01:58:38.789Z,1.40
2022-09-18T02:01:10.156Z,1.70
2022-09-18T02:03:45.648Z,1.50
2022-09-18T02:06:30.483Z,1.33
2022-09-18T02:09:00.124Z,1.70
2022-09-18T02:11:26.999Z,1.77
2022-09-18T02:13:56.272Z,1.70
2022-09-18T02:16:42.118Z,1.50
2022-09-18T02:19:25.596Z,1.73
2022-09-18T02:21:53.436Z,1.50
2022-09-18T02:24:24.519Z,1.60
2022-09-18T02:26:53.488Z,1.70
2022-09-18T02:29:22.382Z,1.40
2022-09-18T02:31:49.949Z,1.50
2022-09-18T02:34:18.577Z,1.50
2022-09-18T02:36:50.337Z,1.57
2022-09-18T02:39:35.218Z,1.40
2022-09-18T02:42:08.791Z,1.23
2022-09-18T02:45:03.594Z,1.27
2022-09-18T02:47:33.383Z,1.60
2022-09-18T02:50:45.272Z,1.70
2022-09-18T02:53:27.161Z,1.60
2022-09-18T02:56:04.628Z,1.50
2022-09-18T02:58:42.367Z,1.53
2022-09-18T03:01:11.653Z,1.47
2022-09-18T03:03:39.541Z,1.50
2022-09-18T03:06:07.265Z,1.50
2022-09-18T03:08:34.140Z,2.00
2022-09-18T03:11:01.044Z,1.57
2022-09-18T03:13:27.897Z,1.60
2022-09-18T03:15:58.143Z,1.90
2022-09-18T03:18:25.017Z,1.40
2022-09-18T03:20:51.844Z,1.50
2022-09-18T03:23:18.764Z,1.80
2022-09-18T03:25:48.339Z,1.50
2022-09-18T03:28:15.086Z,1.73
2022-09-18T03:30:42.974Z,1.50
2022-09-18T03:33:09.748Z,2.00
2022-09-18T03:35:36.610Z,1.60
2022-09-18T03:38:03.429Z,1.60
2022-09-18T03:40:30.250Z,1.70
2022-09-18T03:42:57.149Z,1.60
2022-09-18T03:45:23.960Z,1.57
2022-09-18T03:47:50.736Z,1.97
2022-09-18T03:50:17.640Z,1.40
2022-09-18T03:52:49.023Z,1.50
2022-09-18T03:55:17.988Z,1.73
2022-09-18T03:57:46.313Z,1.50
2022-09-18T04:00:14.374Z,1.63
2022-09-18T04:02:41.897Z,1.60
2022-09-18T04:05:09.052Z,1.60
2022-09-18T04:07:35.900Z,1.37
2022-09-18T04:10:03.578Z,1.53
2022-09-18T04:12:30.386Z,1.60
2022-09-18T04:14:57.267Z,1.70
2022-09-18T04:17:24.090Z,1.60
2022-09-18T04:19:53.567Z,1.40
2022-09-18T04:22:21.801Z,1.37
2022-09-18T04:24:50.453Z,1.33
2022-09-18T04:27:17.737Z,1.70
2022-09-18T04:29:45.071Z,1.83
2022-09-18T04:32:11.894Z,1.63
2022-09-18T04:34:38.719Z,1.53
2022-09-18T04:37:09.531Z,1.70
2022-09-18T04:39:37.148Z,1.53
2022-09-18T04:42:05.443Z,1.60
2022-09-18T04:44:32.267Z,1.67
2022-09-18T04:46:59.173Z,1.37
2022-09-18T04:49:25.994Z,1.60
2022-09-18T04:51:52.798Z,1.90
2022-09-18T04:54:19.609Z,2.07
2022-09-18T04:56:46.456Z,1.67
2022-09-18T04:59:13.277Z,1.70
2022-09-18T05:01:40.360Z,1.67
2022-09-18T05:04:07.217Z,1.60
2022-09-18T05:06:34.360Z,1.40
2022-09-18T05:09:01.261Z,1.73
2022-09-18T05:11:28.490Z,1.40
2022-09-18T05:13:56.838Z,2.00
2022-09-18T05:16:24.604Z,1.70
2022-09-18T05:18:52.360Z,1.70
2022-09-18T05:21:19.616Z,1.83
2022-09-18T05:23:47.010Z,1.90
2022-09-18T05:26:14.622Z,1.67
2022-09-18T05:28:41.653Z,1.63
2022-09-18T05:31:08.828Z,1.80
2022-09-18T05:33:36.608Z,1.50
2022-09-18T05:36:05.508Z,1.83
2022-09-18T05:38:32.477Z,2.70
2022-09-18T05:41:01.763Z,2.00
2022-09-18T05:43:29.717Z,2.10
2022-09-18T05:45:56.986Z,1.83
2022-09-18T05:48:24.147Z,2.30
2022-09-18T05:50:51.872Z,3.10
2022-09-18T05:53:20.509Z,2.33
2022-09-18T05:55:47.884Z,1.90
2022-09-18T05:58:17.468Z,2.10
2022-09-18T06:00:45.185Z,2.50
2022-09-18T06:03:14.974Z,3.20
2022-09-18T06:05:42.210Z,2.77
2022-09-18T06:08:11.042Z,1.70
2022-09-18T06:10:39.779Z,1.33
2022-09-18T06:13:13.101Z,1.80
2022-09-18T06:15:40.156Z,1.50
2022-09-18T06:18:09.100Z,1.40
2022-09-18T06:20:36.344Z,1.43
2022-09-18T06:23:03.301Z,1.67
2022-09-18T06:25:30.525Z,1.57
2022-09-18T06:27:58.893Z,1.43
2022-09-18T06:30:31.429Z,1.60
2022-09-18T06:33:04.000Z,1.70
2022-09-18T06:35:32.489Z,1.47
2022-09-18T06:38:03.567Z,1.53
2022-09-18T06:40:31.504Z,1.30
2022-09-18T06:43:01.598Z,1.43
2022-09-18T06:45:29.691Z,1.30
2022-09-18T06:48:04.736Z,1.43
2022-09-18T06:50:31.858Z,1.70
2022-09-18T06:53:05.917Z,1.63
2022-09-18T06:55:35.703Z,1.50
2022-09-18T06:58:02.470Z,1.50
2022-09-18T07:00:29.279Z,1.43
2022-09-18T07:03:03.172Z,1.70
2022-09-18T07:05:31.736Z,1.60
2022-09-18T07:07:59.091Z,1.50
2022-09-18T07:10:26.608Z,1.60
2022-09-18T07:12:57.713Z,1.40
2022-09-18T07:15:25.697Z,1.60
2022-09-18T07:17:55.957Z,1.77
2022-09-18T07:20:22.847Z,1.63
2022-09-18T07:22:54.764Z,1.57
2022-09-18T07:25:22.217Z,1.70
2022-09-18T07:27:50.033Z,1.70
2022-09-18T07:30:17.769Z,1.60
2022-09-18T07:32:44.854Z,1.53
2022-09-18T07:35:11.911Z,1.43
2022-09-18T07:37:39.397Z,1.53
2022-09-18T07:40:08.301Z,3.63
2022-09-18T07:42:35.675Z,3.90
2022-09-18T07:45:02.471Z,3.70
2022-09-18T07:47:29.863Z,4.30
2022-09-18T07:49:56.790Z,2.53
2022-09-18T07:52:24.867Z,2.53
2022-09-18T07:54:51.709Z,3.57
2022-09-18T07:57:18.548Z,3.77
2022-09-18T07:59:45.318Z,3.00
2022-09-18T08:02:13.193Z,3.30
2022-09-18T08:04:40.147Z,9.30
2022-09-18T08:07:07.363Z,4.93
2022-09-18T08:09:34.182Z,2.10
2022-09-18T08:12:02.791Z,2.70
2022-09-18T08:14:30.017Z,1.70
2022-09-18T08:16:57.968Z,5.27
2022-09-18T08:19:25.051Z,2.90
2022-09-18T08:21:51.889Z,2.93
2022-09-18T08:24:18.947Z,1.80
2022-09-18T08:26:45.820Z,2.00
2022-09-18T08:29:19.248Z,1.53
2022-09-18T08:31:47.279Z,2.60
2022-09-18T08:34:14.181Z,1.77
2022-09-18T08:36:41.030Z,2.93
2022-09-18T08:39:07.885Z,3.60
2022-09-18T08:41:58.583Z,2.20
2022-09-18T08:44:59.856Z,2.20
2022-09-18T08:47:50.218Z,3.00
2022-09-18T08:50:24.569Z,1.63
2022-09-18T08:52:58.365Z,1.70
2022-09-18T08:55:33.372Z,1.57
2022-09-18T08:58:05.344Z,1.60
2022-09-18T09:00:37.342Z,1.40
2022-09-18T09:03:33.532Z,1.50
2022-09-18T09:06:31.423Z,1.50
2022-09-18T09:09:31.676Z,1.70
2022-09-18T09:12:28.301Z,2.43
2022-09-18T09:15:32.232Z,1.80
2022-09-18T09:18:11.107Z,1.10
2022-09-18T09:20:58.741Z,1.27
2022-09-18T09:23:57.656Z,1.00
2022-09-18T09:26:25.773Z,1.17
2022-09-18T09:29:18.619Z,1.27
2022-09-18T09:31:51.356Z,0.90
2022-09-18T09:34:32.132Z,1.20
2022-09-18T09:37:02.861Z,1.00
2022-09-18T09:39:33.702Z,1.07
2022-09-18T09:42:14.733Z,1.13
2022-09-18T09:45:01.730Z,0.87
2022-09-18T09:47:42.783Z,0.90
2022-09-18T09:50:20.534Z,0.90
2022-09-18T09:52:47.747Z,0.90
2022-09-18T09:55:14.608Z,0.90
2022-09-18T09:58:26.776Z,1.00
2022-09-18T10:01:15.459Z,0.80
2022-09-18T10:03:45.272Z,0.93
2022-09-18T10:06:41.532Z,0.90
2022-09-18T10:09:15.234Z,1.00
2022-09-18T10:11:46.382Z,1.00
2022-09-18T10:14:18.529Z,0.93
2022-09-18T10:16:51.467Z,1.20
2022-09-18T10:19:20.899Z,0.90
2022-09-18T10:21:51.037Z,1.03
2022-09-18T10:24:35.829Z,0.80
2022-09-18T10:27:13.696Z,0.60
2022-09-18T10:29:40.603Z,0.90
2022-09-18T10:32:08.092Z,0.90
2022-09-18T10:34:49.559Z,1.17
2022-09-18T10:37:17.386Z,2.57
2022-09-18T10:39:53.233Z,6.50
2022-09-18T10:42:23.248Z,2.40
2022-09-18T10:45:01.377Z,2.10
2022-09-18T10:47:30.479Z,0.70
2022-09-18T10:50:06.553Z,0.90
2022-09-18T10:52:41.002Z,1.10
2022-09-18T10:55:08.054Z,1.23
2022-09-18T10:57:49.794Z,0.93
2022-09-18T11:00:19.544Z,0.70
2022-09-18T11:03:00.270Z,0.80
2022-09-18T11:05:35.625Z,0.90
2022-09-18T11:08:13.043Z,1.20
2022-09-18T11:10:40.152Z,0.80
2022-09-18T11:13:06.943Z,0.80
2022-09-18T11:15:36.289Z,1.50
2022-09-18T11:18:07.531Z,0.80
2022-09-18T11:20:43.615Z,0.83
2022-09-18T11:23:23.140Z,0.90
2022-09-18T11:25:50.032Z,0.90
2022-09-18T11:28:27.785Z,0.87
2022-09-18T11:31:15.250Z,1.00
2022-09-18T11:33:45.095Z,0.70
2022-09-18T11:36:14.183Z,0.90
2022-09-18T11:38:44.403Z,0.60
2022-09-18T11:41:13.407Z,0.70
2022-09-18T11:43:43.092Z,1.07
2022-09-18T11:46:27.423Z,0.90
2022-09-18T11:49:04.798Z,0.80
2022-09-18T11:51:48.818Z,0.73
2022-09-18T11:54:29.819Z,1.23
2022-09-18T11:57:02.992Z,1.07
2022-09-18T11:59:46.563Z,1.20
2022-09-18T12:02:31.819Z,0.90
2022-09-18T12:05:33.211Z,1.00
2022-09-18T12:08:14.778Z,0.90
2022-09-18T12:11:00.469Z,0.60
2022-09-18T12:13:49.184Z,0.90
2022-09-18T12:16:31.091Z,0.70
2022-09-18T12:19:04.063Z,0.80
2022-09-18T12:21:49.943Z,1.00
2022-09-18T12:24:17.644Z,1.10
2022-09-18T12:26:50.739Z,0.97
2022-09-18T12:29:35.207Z,0.90
2022-09-18T12:32:07.932Z,0.87
2022-09-18T12:34:49.773Z,1.33
2022-09-18T12:37:31.506Z,1.23
2022-09-18T12:40:15.742Z,0.90
2022-09-18T12:42:57.711Z,1.70
2022-09-18T12:45:32.787Z,1.70
2022-09-18T12:48:19.818Z,1.77
2022-09-18T12:51:01.911Z,2.20
2022-09-18T12:53:51.997Z,1.10
2022-09-18T12:56:54.397Z,0.80
2022-09-18T12:59:40.846Z,0.97
2022-09-18T13:02:42.618Z,0.90
2022-09-18T13:05:27.526Z,1.00
2022-09-18T13:08:34.044Z,1.17
2022-09-18T13:11:04.664Z,1.23
2022-09-18T13:13:51.223Z,0.60
2022-09-18T13:16:28.366Z,0.90
2022-09-18T13:18:58.031Z,0.80
2022-09-18T13:21:31.174Z,0.90
2022-09-18T13:24:00.576Z,1.50
2022-09-18T13:26:31.910Z,1.23
2022-09-18T13:28:59.164Z,1.00
2022-09-18T13:31:34.244Z,1.10
2022-09-18T13:34:14.654Z,3.23
2022-09-18T13:36:44.498Z,1.40
2022-09-18T13:39:45.995Z,1.20
2022-09-18T13:42:34.111Z,1.30
2022-09-18T13:45:23.693Z,0.90
2022-09-18T13:48:04.469Z,0.80
2022-09-18T13:50:33.956Z,1.10
2022-09-18T13:53:04.958Z,1.00
2022-09-18T13:55:51.568Z,1.10
2022-09-18T13:58:34.000Z,1.00
2022-09-18T14:01:07.229Z,1.13
2022-09-18T14:03:40.008Z,1.00
2022-09-18T14:06:34.741Z,1.07
2022-09-18T14:09:21.073Z,1.10
2022-09-18T14:11:47.946Z,1.10
2022-09-18T14:14:22.497Z,1.13
2022-09-18T14:16:50.757Z,1.23
2022-09-18T14:19:32.112Z,0.90
2022-09-18T14:22:00.975Z,2.23
2022-09-18T14:24:40.310Z,1.70
2022-09-18T14:27:29.585Z,3.13
2022-09-18T14:29:59.408Z,7.10
2022-09-18T14:32:27.733Z,2.73
2022-09-18T14:35:30.252Z,1.07
2022-09-18T14:37:57.298Z,2.30
2022-09-18T14:40:27.340Z,2.20
2022-09-18T14:42:54.626Z,1.60
2022-09-18T14:45:24.885Z,1.90
2022-09-18T14:47:51.846Z,1.20
2022-09-18T14:50:35.084Z,1.83
2022-09-18T14:53:21.212Z,2.10
2022-09-18T14:55:58.196Z,3.03
2022-09-18T14:58:32.062Z,7.77
2022-09-18T15:00:59.156Z,3.43
2022-09-18T15:03:38.603Z,1.50
2022-09-18T15:06:34.149Z,1.60
2022-09-18T15:09:02.557Z,1.73
2022-09-18T15:11:41.638Z,3.27
2022-09-18T15:14:22.939Z,1.30
2022-09-18T15:16:56.281Z,1.50
2022-09-18T15:19:23.532Z,1.60
2022-09-18T15:21:51.125Z,1.70
2022-09-18T15:24:19.221Z,1.70
2022-09-18T15:26:56.458Z,1.60
2022-09-18T15:29:29.438Z,2.37
2022-09-18T15:31:57.314Z,1.90
2022-09-18T15:34:27.603Z,1.60
2022-09-18T15:37:05.587Z,1.30
2022-09-18T15:39:41.041Z,3.10
2022-09-18T15:42:30.547Z,1.40
2022-09-18T15:45:04.022Z,1.30
2022-09-18T15:47:37.852Z,1.83
2022-09-18T15:50:13.637Z,2.43
2022-09-18T15:53:02.291Z,2.50
2022-09-18T15:55:36.431Z,5.60
2022-09-18T15:58:31.031Z,4.27
2022-09-18T16:01:00.792Z,5.97
2022-09-18T16:03:32.768Z,5.33
2022-09-18T16:06:06.430Z,8.37
2022-09-18T16:08:36.754Z,3.10
2022-09-18T16:11:06.440Z,2.40
2022-09-18T16:13:40.330Z,2.10
2022-09-18T16:16:13.175Z,1.83
2022-09-18T16:19:13.187Z,1.73
2022-09-18T16:21:42.399Z,3.63
2022-09-18T16:24:23.249Z,2.77
2022-09-18T16:26:50.196Z,4.00
2022-09-18T16:29:21.799Z,1.70
2022-09-18T16:31:49.060Z,3.30
2022-09-18T16:34:24.585Z,2.90
2022-09-18T16:36:52.209Z,4.30
2022-09-18T16:39:24.372Z,3.23
2022-09-18T16:41:51.817Z,6.63
2022-09-18T16:44:18.947Z,5.13
2022-09-18T16:46:53.481Z,5.10
2022-09-18T16:49:23.211Z,3.50
2022-09-18T16:51:50.028Z,7.30
2022-09-18T16:54:16.847Z,8.67
2022-09-18T16:56:51.616Z,4.77
2022-09-18T16:59:21.132Z,24.40
2022-09-18T17:02:02.933Z,26.27
2022-09-18T17:04:31.610Z,9.90
2022-09-18T17:06:58.697Z,10.07
2022-09-18T17:09:26.107Z,13.80
2022-09-18T17:11:54.378Z,19.37
2022-09-18T17:14:22.266Z,13.90
2022-09-18T17:16:49.167Z,7.53
2022-09-18T17:19:16.163Z,4.17
2022-09-18T17:21:43.339Z,3.80
2022-09-18T17:24:10.771Z,4.93
2022-09-18T17:26:39.286Z,2.13
2022-09-18T17:29:06.233Z,4.43
2022-09-18T17:31:33.179Z,5.17
2022-09-18T17:34:00.999Z,5.20
2022-09-18T17:36:28.584Z,4.27
2022-09-18T17:38:57.554Z,6.10
2022-09-18T17:41:26.255Z,3.27
2022-09-18T17:43:53.692Z,5.40
2022-09-18T17:46:21.203Z,3.57
2022-09-18T17:48:56.500Z,4.23
2022-09-18T17:51:28.200Z,4.23
2022-09-18T17:54:02.816Z,3.27
2022-09-18T17:56:30.760Z,2.70
2022-09-18T17:59:00.066Z,2.67
2022-09-18T18:01:28.986Z,2.13
2022-09-18T18:03:57.210Z,2.17
2022-09-18T18:06:24.608Z,3.63
2022-09-18T18:08:51.737Z,2.40
2022-09-18T18:11:22.236Z,2.10
2022-09-18T18:13:50.507Z,2.63
2022-09-18T18:16:23.422Z,3.37
2022-09-18T18:18:56.046Z,2.80
2022-09-18T18:21:23.634Z,1.73
2022-09-18T18:23:58.545Z,1.70
2022-09-18T18:26:27.995Z,2.17
2022-09-18T18:28:58.952Z,1.80
2022-09-18T18:31:26.167Z,1.83
2022-09-18T18:33:54.683Z,3.67
2022-09-18T18:36:27.663Z,2.30
2022-09-18T18:38:57.542Z,5.83
2022-09-18T18:41:26.251Z,2.40
2022-09-18T18:43:58.701Z,2.60
2022-09-18T18:46:28.489Z,2.33
2022-09-18T18:49:02.611Z,3.67
2022-09-18T18:51:32.613Z,2.20
2022-09-18T18:54:03.527Z,4.70
2022-09-18T18:56:34.070Z,4.20
2022-09-18T18:59:02.993Z,4.37
2022-09-18T19:01:31.274Z,3.33
2022-09-18T19:04:01.579Z,4.63
2022-09-18T19:06:29.850Z,4.07
2022-09-18T19:08:59.409Z,2.00
2022-09-18T19:11:27.027Z,1.70
2022-09-18T19:13:56.873Z,1.80
2022-09-18T19:16:29.272Z,2.73
2022-09-18T19:18:59.684Z,1.80
2022-09-18T19:21:28.527Z,1.60
2022-09-18T19:24:01.113Z,1.90
2022-09-18T19:26:29.894Z,1.40
2022-09-18T19:29:02.163Z,1.37
2022-09-18T19:31:29.824Z,1.40
2022-09-18T19:33:57.908Z,1.20
2022-09-18T19:36:29.242Z,1.33
2022-09-18T19:38:58.335Z,1.40
2022-09-18T19:41:52.410Z,1.17
2022-09-18T19:44:29.197Z,1.40
2022-09-18T19:46:59.289Z,1.67
2022-09-18T19:49:39.165Z,1.47
2022-09-18T19:52:24.045Z,1.50
2022-09-18T19:54:52.645Z,1.57
2022-09-18T19:57:20.740Z,1.60
2022-09-18T19:59:47.643Z,1.20
2022-09-18T20:02:17.429Z,1.10
2022-09-18T20:04:44.420Z,1.50
2022-09-18T20:07:11.775Z,1.00
2022-09-18T20:09:40.276Z,1.30
2022-09-18T20:12:08.901Z,0.90
2022-09-18T20:14:35.861Z,1.20
2022-09-18T20:17:04.609Z,1.27
2022-09-18T20:19:31.458Z,1.30
2022-09-18T20:22:02.436Z,1.20
2022-09-18T20:24:30.415Z,1.10
2022-09-18T20:26:58.372Z,1.13
2022-09-18T20:29:27.320Z,1.20
2022-09-18T20:31:54.245Z,1.30
2022-09-18T20:34:22.390Z,1.00
2022-09-18T20:36:50.197Z,1.10
2022-09-18T20:39:17.073Z,1.10
2022-09-18T20:41:45.786Z,1.20
2022-09-18T20:44:14.129Z,0.93
2022-09-18T20:46:43.000Z,1.27
2022-09-18T20:49:11.091Z,1.13
2022-09-18T20:51:37.993Z,1.00
2022-09-18T20:54:11.114Z,1.20
2022-09-18T20:56:44.395Z,1.43
2022-09-18T20:59:13.199Z,1.10
2022-09-18T21:01:42.137Z,1.30
2022-09-18T21:04:17.178Z,1.10
2022-09-18T21:06:46.666Z,1.00
2022-09-18T21:09:14.363Z,1.50
2022-09-18T21:11:43.213Z,1.20
2022-09-18T21:14:12.418Z,1.23
2022-09-18T21:16:42.718Z,1.10
2022-09-18T21:19:12.024Z,1.20
2022-09-18T21:21:39.530Z,1.00
2022-09-18T21:24:09.464Z,1.10
2022-09-18T21:26:39.412Z,1.00
2022-09-18T21:29:25.350Z,1.30
2022-09-18T21:31:57.563Z,1.30
2022-09-18T21:34:27.345Z,1.10
2022-09-18T21:36:58.863Z,1.30
2022-09-18T21:39:28.304Z,1.20
2022-09-18T21:41:56.883Z,1.10
2022-09-18T21:44:28.773Z,1.10
2022-09-18T21:46:58.407Z,1.13
2022-09-18T21:49:26.144Z,1.27
2022-09-18T21:52:02.258Z,1.20
2022-09-18T21:54:29.332Z,1.27
2022-09-18T21:56:56.475Z,1.10
2022-09-18T21:59:25.202Z,1.20
2022-09-18T22:01:55.375Z,1.00
2022-09-18T22:04:30.534Z,1.07
2022-09-18T22:06:59.515Z,1.00
2022-09-18T22:09:32.346Z,1.10
2022-09-18T22:12:01.142Z,1.30
2022-09-18T22:14:31.971Z,1.33
2022-09-18T22:17:00.895Z,1.30
2022-09-18T22:19:29.224Z,1.37
2022-09-18T22:21:56.448Z,1.10
2022-09-18T22:24:25.224Z,1.20
2022-09-18T22:27:03.008Z,1.27
2022-09-18T22:29:31.908Z,1.07
2022-09-18T22:32:02.031Z,1.20
2022-09-18T22:34:30.173Z,1.13
2022-09-18T22:36:59.259Z,1.30
2022-09-18T22:39:26.267Z,1.10
2022-09-18T22:41:53.376Z,1.30
2022-09-18T22:44:21.780Z,1.30
2022-09-18T22:46:49.746Z,1.10
2022-09-18T22:49:17.800Z,1.30
2022-09-18T22:51:45.630Z,1.10
2022-09-18T22:54:13.398Z,1.20
2022-09-18T22:56:44.495Z,1.13
2022-09-18T22:59:13.889Z,1.20
2022-09-18T23:01:48.932Z,1.30
2022-09-18T23:04:18.473Z,1.40
2022-09-18T23:06:47.292Z,1.40
2022-09-18T23:09:15.094Z,1.20
2022-09-18T23:11:43.276Z,1.00
2022-09-18T23:14:20.382Z,1.37
2022-09-18T23:16:49.082Z,1.50
2022-09-18T23:19:26.011Z,1.17
2022-09-18T23:21:54.330Z,1.23
2022-09-18T23:24:22.417Z,1.33
2022-09-18T23:26:51.046Z,1.20
2022-09-18T23:29:21.114Z,1.23
2022-09-18T23:31:53.577Z,1.27
2022-09-18T23:34:23.493Z,1.17
2022-09-18T23:36:52.558Z,1.20
2022-09-18T23:39:25.497Z,1.20
2022-09-18T23:41:52.759Z,1.37
2022-09-18T23:44:21.548Z,1.30
2022-09-18T23:46:49.506Z,1.20
2022-09-18T23:49:20.567Z,1.07
2022-09-18T23:51:47.376Z,1.30
2022-09-18T23:54:17.741Z,1.30
2022-09-18T23:56:45.244Z,1.40
2022-09-18T23:59:13.487Z,1.23
